Terminal Aerodrome Forecast
Issued by NWS Nashville, TN

Home | Current Version | Previous Version | Text Only | Print | Product List | Glossary On
Versions: 1 2 3 4 5 6 7 8 9 10 11 12 13 14 15 16 17 18 19
000
FTUS44 KOHX 290900 AAB
TAFBNA
TAF AMD
KBNA 290920Z 2909/3006 35005KT 5SM BR OVC005
     FM291300 01006KT P6SM BKN015
     FM291800 01007KT P6SM BKN030
     FM300500 36007KT P6SM SCT035=

USA.gov is the U.S. government's official web portal to all federal, state and local government web resources and services.